Decoded Metar for KDYR (DYERSBURG in TN, USA) (IATA:DYR) | Meteo·Mobile Aviation Weather
aviador You're here:

KDYR Decoded Metar

DYERSBURG in TN, USA
Report Time2018-09-21 11:56:00
UTC Time2018-09-21 12:16:58
Flight Rules vfr VFR
WindCalm
Visibility9999 m
Phenomena:N/A
Clouds:Scattered 110 Hf
Expected CloudBase > 800 ft AGL from Temp-Dew spread
CeilingNone
Temp24°C (ISA +10)
Dew Point22°C (89% RH)
QNH1018 hPa
Density Alt1,640 ft
Elevation338 ft
Report Wrong Elevation
Raw Report
METAR KDYR 211156Z AUTO 00000KT 10SM SCT110 24/22 A3005 RMK AO2 SLP186
6//// 7//// T02390217 10261 20239 53015 PNO $=

Extra information for KDYR:More info

Metar Taf Metar & Taf Last 4 Metars F.Rules Stats Wind Profile Meteogram Temp Stats Airport Information Weather charts Add Link Nearby VenuesMetar ALERT Operation Metar Decoded Social comments

AIRNAV info for KDYR